createdAt,value
2024-04-18T00:02:31.715Z,3.20
2024-04-18T00:06:34.721Z,4.03
2024-04-18T00:10:37.247Z,3.63
2024-04-18T00:14:39.859Z,3.80
2024-04-18T00:18:53.917Z,3.13
2024-04-18T00:23:02.684Z,3.30
2024-04-18T00:27:05.136Z,3.10
2024-04-18T00:31:10.145Z,3.77
2024-04-18T00:35:32.016Z,3.70
2024-04-18T00:39:48.653Z,4.30
2024-04-18T00:44:14.000Z,3.67
2024-04-18T00:48:16.834Z,4.10
2024-04-18T00:52:22.938Z,4.40
2024-04-18T00:56:30.904Z,8.03
2024-04-18T01:00:53.943Z,5.40
2024-04-18T01:05:15.629Z,11.03
2024-04-18T01:09:18.313Z,5.70
2024-04-18T01:13:39.599Z,4.23
2024-04-18T01:17:57.096Z,4.37
2024-04-18T01:22:03.535Z,4.40
2024-04-18T01:26:07.474Z,4.20
2024-04-18T01:30:09.854Z,4.70
2024-04-18T01:34:12.366Z,4.50
2024-04-18T01:38:14.466Z,4.57
2024-04-18T01:42:21.226Z,4.60
2024-04-18T01:46:24.223Z,5.23
2024-04-18T01:50:35.078Z,5.53
2024-04-18T01:54:37.208Z,5.50
2024-04-18T01:58:39.176Z,4.80
2024-04-18T02:02:42.319Z,4.70
2024-04-18T02:06:44.655Z,7.20
2024-04-18T02:10:59.084Z,7.50
2024-04-18T02:15:16.396Z,7.33
2024-04-18T02:19:38.734Z,7.50
2024-04-18T02:23:59.446Z,8.13
2024-04-18T02:28:01.368Z,8.67
2024-04-18T02:32:03.509Z,7.30
2024-04-18T02:36:08.511Z,8.90
2024-04-18T02:40:16.628Z,8.00
2024-04-18T02:44:34.809Z,8.13
2024-04-18T02:48:38.279Z,8.37
2024-04-18T02:52:58.821Z,7.87
2024-04-18T02:57:01.049Z,8.40
2024-04-18T03:01:04.914Z,7.30
2024-04-18T03:05:14.911Z,7.87
2024-04-18T03:09:17.107Z,7.67
2024-04-18T03:13:28.043Z,7.83
2024-04-18T03:17:30.304Z,7.70
2024-04-18T03:21:39.821Z,9.00
2024-04-18T03:25:53.310Z,15.50
2024-04-18T03:29:55.271Z,7.63
2024-04-18T03:34:09.327Z,7.50
2024-04-18T03:38:25.820Z,8.43
2024-04-18T03:42:28.093Z,7.30
2024-04-18T03:46:30.214Z,14.60
2024-04-18T03:50:35.024Z,6.80
2024-04-18T03:55:01.356Z,7.03
2024-04-18T03:59:16.996Z,6.90
2024-04-18T04:03:19.273Z,6.10
2024-04-18T04:07:21.948Z,6.20
2024-04-18T04:11:24.121Z,6.87
2024-04-18T04:15:26.304Z,6.63
2024-04-18T04:19:37.047Z,7.00
2024-04-18T04:23:39.547Z,6.87
2024-04-18T04:27:41.516Z,8.70
2024-04-18T04:31:43.839Z,6.97
2024-04-18T04:35:46.014Z,6.50
2024-04-18T04:39:48.895Z,6.83
2024-04-18T04:43:54.337Z,7.77
2024-04-18T04:47:56.584Z,6.50
2024-04-18T04:52:03.506Z,6.93
2024-04-18T04:56:17.688Z,7.27
2024-04-18T05:00:39.692Z,6.53
2024-04-18T05:04:42.609Z,6.90
2024-04-18T05:09:04.554Z,7.23
2024-04-18T05:13:06.694Z,8.10
2024-04-18T05:17:11.648Z,7.70
2024-04-18T05:21:13.766Z,7.23
2024-04-18T05:25:35.577Z,7.50
2024-04-18T05:30:14.356Z,8.73
2024-04-18T05:34:16.536Z,7.00
2024-04-18T05:38:18.517Z,8.80
2024-04-18T05:42:20.686Z,7.30
2024-04-18T05:46:42.797Z,7.13
2024-04-18T05:50:44.918Z,7.07
2024-04-18T05:54:55.977Z,7.37
2024-04-18T05:59:14.761Z,7.10
2024-04-18T06:03:17.414Z,7.40
2024-04-18T06:07:19.583Z,6.63
2024-04-18T06:11:37.098Z,6.23
2024-04-18T06:15:54.595Z,6.60
2024-04-18T06:19:56.664Z,6.40
2024-04-18T06:24:04.753Z,6.47
2024-04-18T06:28:10.403Z,6.27
2024-04-18T06:32:12.465Z,6.23
2024-04-18T06:36:14.582Z,5.77
2024-04-18T06:40:17.163Z,6.37
2024-04-18T06:44:19.568Z,6.30
2024-04-18T06:48:21.826Z,6.10
2024-04-18T06:52:24.728Z,6.43
2024-04-18T06:56:26.793Z,6.97
2024-04-18T07:00:29.926Z,6.23
2024-04-18T07:04:32.123Z,6.37
2024-04-18T07:08:46.551Z,6.37
2024-04-18T07:13:08.645Z,6.30
2024-04-18T07:17:29.955Z,5.20
2024-04-18T07:21:40.914Z,5.50
2024-04-18T07:25:52.195Z,5.73
2024-04-18T07:30:04.211Z,5.50
2024-04-18T07:34:24.157Z,5.30
2024-04-18T07:38:27.360Z,5.00
2024-04-18T07:42:29.429Z,5.00
2024-04-18T07:46:33.630Z,5.20
2024-04-18T07:50:36.308Z,4.40
2024-04-18T07:54:38.832Z,4.27
2024-04-18T07:58:41.536Z,4.00
2024-04-18T08:02:46.756Z,4.47
2024-04-18T08:06:52.960Z,4.90
2024-04-18T08:11:15.482Z,4.87
2024-04-18T08:15:23.985Z,4.57
2024-04-18T08:19:29.409Z,4.13
2024-04-18T08:23:31.435Z,4.10
2024-04-18T08:27:34.591Z,4.23
2024-04-18T08:31:38.222Z,4.03
2024-04-18T08:35:40.543Z,3.23
2024-04-18T08:39:42.572Z,4.53
2024-04-18T08:43:47.017Z,4.30
2024-04-18T08:47:53.094Z,3.87
2024-04-18T08:51:55.396Z,3.20
2024-04-18T08:55:59.879Z,4.40
2024-04-18T09:00:04.014Z,4.13
2024-04-18T09:04:06.220Z,4.17
2024-04-18T09:08:10.712Z,4.20
2024-04-18T09:12:14.335Z,4.53
2024-04-18T09:16:16.510Z,4.70
2024-04-18T09:20:18.648Z,4.77
2024-04-18T09:24:21.452Z,5.40
2024-04-18T09:28:23.576Z,5.30
2024-04-18T09:32:26.812Z,4.50
2024-04-18T09:36:29.328Z,4.77
2024-04-18T09:40:33.875Z,4.20
2024-04-18T09:44:37.882Z,3.80
2024-04-18T09:48:42.003Z,4.40
2024-04-18T09:52:46.556Z,3.90
2024-04-18T09:56:49.760Z,4.63
2024-04-18T10:00:52.773Z,4.97
2024-04-18T10:04:55.391Z,4.53
2024-04-18T10:08:58.298Z,5.00
2024-04-18T10:13:00.695Z,3.60
2024-04-18T10:17:04.728Z,4.40
2024-04-18T10:21:33.269Z,3.90
2024-04-18T10:25:46.338Z,3.80
2024-04-18T10:29:58.642Z,3.40
2024-04-18T10:34:00.951Z,3.20
2024-04-18T10:38:04.009Z,3.10
2024-04-18T10:42:09.596Z,3.00
2024-04-18T10:46:13.768Z,3.13
2024-04-18T10:50:16.361Z,4.00
2024-04-18T10:54:18.726Z,3.70
2024-04-18T10:58:20.806Z,4.20
2024-04-18T11:02:22.947Z,4.20
2024-04-18T11:06:25.090Z,5.60
2024-04-18T11:10:28.538Z,3.90
2024-04-18T11:14:31.955Z,4.93
2024-04-18T11:18:33.996Z,5.77
2024-04-18T11:22:38.908Z,4.73
2024-04-18T11:26:41.067Z,3.50
2024-04-18T11:30:46.699Z,3.93
2024-04-18T11:34:57.006Z,4.37
2024-04-18T11:39:02.748Z,4.20
2024-04-18T11:43:04.983Z,3.50
2024-04-18T11:47:07.300Z,3.80
2024-04-18T11:51:09.483Z,4.07
2024-04-18T11:55:11.842Z,4.47
2024-04-18T11:59:15.182Z,2.70
2024-04-18T12:03:17.481Z,3.07
2024-04-18T12:07:28.526Z,4.17
2024-04-18T12:11:31.883Z,2.30
2024-04-18T12:15:46.549Z,2.23
2024-04-18T12:20:04.933Z,2.53
2024-04-18T12:24:09.580Z,2.93
2024-04-18T12:28:11.668Z,2.57
2024-04-18T12:32:20.611Z,2.27
2024-04-18T12:36:23.594Z,11.73
2024-04-18T12:40:26.253Z,2.00
2024-04-18T12:44:48.679Z,2.40
2024-04-18T12:48:57.627Z,2.13
2024-04-18T12:53:00.048Z,2.00
2024-04-18T12:57:02.112Z,1.80
2024-04-18T13:01:04.404Z,1.90
2024-04-18T13:05:15.821Z,2.60
2024-04-18T13:09:38.081Z,1.43
2024-04-18T13:13:40.339Z,1.50
2024-04-18T13:17:46.998Z,1.60
2024-04-18T13:21:57.500Z,1.40
2024-04-18T13:26:01.172Z,1.13
2024-04-18T13:30:07.675Z,1.00
2024-04-18T13:34:10.207Z,0.90
2024-04-18T13:38:12.527Z,1.07
2024-04-18T13:42:28.244Z,1.13
2024-04-18T13:46:30.385Z,1.30
2024-04-18T13:50:34.882Z,1.00
2024-04-18T13:54:37.356Z,1.10
2024-04-18T13:58:59.839Z,1.00
2024-04-18T14:03:02.829Z,1.10
2024-04-18T14:07:05.251Z,1.00
2024-04-18T14:11:07.534Z,0.90
2024-04-18T14:15:28.851Z,1.13
2024-04-18T14:19:50.883Z,1.08
2024-04-18T14:23:53.152Z,1.63
2024-04-18T14:27:55.098Z,1.93
2024-04-18T14:32:12.928Z,1.80
2024-04-18T14:36:33.648Z,2.20
2024-04-18T14:40:36.055Z,1.93
2024-04-18T14:44:38.041Z,1.90
2024-04-18T14:48:49.569Z,1.75
2024-04-18T14:52:57.949Z,1.73
2024-04-18T14:57:05.836Z,2.00
2024-04-18T15:01:14.033Z,1.63
2024-04-18T15:05:16.713Z,2.22
2024-04-18T15:09:36.909Z,1.80
2024-04-18T15:13:41.558Z,1.93
2024-04-18T15:18:00.103Z,1.90
2024-04-18T15:22:08.251Z,1.90
2024-04-18T15:26:19.560Z,1.70
2024-04-18T15:30:21.698Z,1.57
2024-04-18T15:34:23.932Z,1.70
2024-04-18T15:38:28.990Z,2.07
2024-04-18T15:42:49.380Z,1.90
2024-04-18T15:47:11.737Z,1.77
2024-04-18T15:51:21.131Z,2.80
2024-04-18T15:55:40.992Z,2.50
2024-04-18T16:00:01.680Z,8.93
2024-04-18T16:04:03.944Z,2.37
2024-04-18T16:08:06.334Z,2.23
2024-04-18T16:12:08.812Z,2.07
2024-04-18T16:16:31.774Z,3.03
2024-04-18T16:20:42.851Z,3.30
2024-04-18T16:24:45.135Z,2.90
2024-04-18T16:28:47.322Z,2.70
2024-04-18T16:32:49.601Z,3.50
2024-04-18T16:37:04.545Z,2.60
2024-04-18T16:41:19.656Z,2.70
2024-04-18T16:45:21.806Z,2.40
2024-04-18T16:49:23.947Z,2.10
2024-04-18T16:53:26.440Z,2.30
2024-04-18T16:57:49.196Z,2.10
2024-04-18T17:01:59.884Z,1.90
2024-04-18T17:06:03.262Z,2.50
2024-04-18T17:10:06.978Z,2.10
2024-04-18T17:14:29.062Z,2.30
2024-04-18T17:18:32.393Z,1.90
2024-04-18T17:22:34.589Z,2.90
2024-04-18T17:26:36.808Z,2.03
2024-04-18T17:30:38.983Z,1.90
2024-04-18T17:34:41.037Z,2.10
2024-04-18T17:38:44.121Z,2.10
2024-04-18T17:43:04.560Z,2.27
2024-04-18T17:47:06.711Z,2.03
2024-04-18T17:51:08.779Z,2.47
2024-04-18T17:55:12.041Z,2.53
2024-04-18T17:59:15.575Z,15.27
2024-04-18T18:03:17.798Z,8.53
2024-04-18T18:07:19.948Z,4.17
2024-04-18T18:11:22.229Z,2.80
2024-04-18T18:15:24.949Z,2.90
2024-04-18T18:19:27.544Z,9.00
2024-04-18T18:23:32.278Z,3.33
2024-04-18T18:27:34.524Z,2.10
2024-04-18T18:31:56.619Z,2.83
2024-04-18T18:35:58.729Z,2.30
2024-04-18T18:40:00.793Z,2.67
2024-04-18T18:44:04.365Z,3.00
2024-04-18T18:48:07.241Z,4.77
2024-04-18T18:52:09.318Z,5.10
2024-04-18T18:56:11.265Z,3.00
2024-04-18T19:00:31.985Z,3.20
2024-04-18T19:04:45.931Z,4.10
2024-04-18T19:08:48.140Z,3.43
2024-04-18T19:13:10.174Z,2.80
2024-04-18T19:17:31.931Z,3.00
2024-04-18T19:21:34.333Z,2.67
2024-04-18T19:25:38.521Z,2.37
2024-04-18T19:29:46.959Z,1.50
2024-04-18T19:33:50.086Z,1.87
2024-04-18T19:37:52.314Z,1.70
2024-04-18T19:41:54.386Z,1.83
2024-04-18T19:46:01.229Z,1.60
2024-04-18T19:50:03.665Z,1.70
2024-04-18T19:54:06.458Z,4.13
2024-04-18T19:58:08.716Z,2.80
2024-04-18T20:02:10.937Z,2.50
2024-04-18T20:06:13.046Z,2.10
2024-04-18T20:10:35.785Z,3.47
2024-04-18T20:14:38.257Z,3.57
2024-04-18T20:18:40.956Z,4.27
2024-04-18T20:22:43.964Z,4.13
2024-04-18T20:26:45.979Z,2.90
2024-04-18T20:30:48.194Z,2.80
2024-04-18T20:34:50.481Z,2.90
2024-04-18T20:38:52.556Z,3.10
2024-04-18T20:42:54.652Z,3.27
2024-04-18T20:46:56.782Z,3.27
2024-04-18T20:50:59.001Z,2.90
2024-04-18T20:55:01.940Z,3.47
2024-04-18T20:59:04.067Z,3.37
2024-04-18T21:03:06.134Z,3.63
2024-04-18T21:07:08.498Z,3.77
2024-04-18T21:11:10.555Z,3.63
2024-04-18T21:15:12.542Z,5.20
2024-04-18T21:19:17.083Z,5.80
2024-04-18T21:23:21.909Z,6.57
2024-04-18T21:27:24.156Z,5.80
2024-04-18T21:31:26.170Z,4.70
2024-04-18T21:35:28.330Z,5.03
2024-04-18T21:39:30.485Z,5.40
2024-04-18T21:43:32.660Z,4.60
2024-04-18T21:47:54.710Z,4.53
2024-04-18T21:51:56.825Z,5.20
2024-04-18T21:55:58.780Z,5.30
2024-04-18T22:00:01.026Z,6.30
2024-04-18T22:04:21.748Z,7.67
2024-04-18T22:08:24.021Z,9.00
2024-04-18T22:12:26.218Z,6.13
2024-04-18T22:16:28.156Z,5.37
2024-04-18T22:20:30.166Z,5.77
2024-04-18T22:24:50.470Z,5.60
2024-04-18T22:28:52.645Z,5.80
2024-04-18T22:32:55.077Z,6.07
2024-04-18T22:36:57.183Z,6.57
2024-04-18T22:40:59.261Z,6.60
2024-04-18T22:45:01.362Z,5.87
2024-04-18T22:49:04.757Z,6.10
2024-04-18T22:53:07.066Z,5.70
2024-04-18T22:57:09.309Z,6.40
2024-04-18T23:01:11.664Z,6.33
2024-04-18T23:05:13.875Z,6.37
2024-04-18T23:09:15.867Z,6.03
2024-04-18T23:13:18.419Z,6.73
2024-04-18T23:17:20.513Z,6.43
2024-04-18T23:21:22.498Z,6.80
2024-04-18T23:25:24.412Z,6.43
2024-04-18T23:29:29.793Z,6.97
2024-04-18T23:33:31.990Z,7.40
2024-04-18T23:37:34.063Z,7.50
2024-04-18T23:41:36.103Z,7.67
2024-04-18T23:45:38.192Z,7.43
2024-04-18T23:49:40.260Z,7.03
2024-04-18T23:53:42.308Z,7.43
2024-04-18T23:57:44.415Z,7.23
